createdAt,value
2019-05-07T00:01:23.234Z,101837.04
2019-05-07T00:03:52.876Z,101837.47
2019-05-07T00:06:23.113Z,101838.23
2019-05-07T00:08:52.634Z,101834.23
2019-05-07T00:11:22.427Z,101833.94
2019-05-07T00:13:52.284Z,101830.30
2019-05-07T00:16:22.460Z,101828.98
2019-05-07T00:18:52.521Z,101822.45
2019-05-07T00:21:23.279Z,101824.97
2019-05-07T00:23:52.781Z,101821.85
2019-05-07T00:26:22.625Z,101820.31
2019-05-07T00:28:52.658Z,101815.50
2019-05-07T00:31:23.236Z,101814.55
2019-05-07T00:33:52.738Z,101816.08
2019-05-07T00:36:42.819Z,101813.03
2019-05-07T00:39:29.808Z,101810.09
2019-05-07T00:42:22.040Z,101811.04
2019-05-07T00:45:17.091Z,101804.03
2019-05-07T00:47:36.026Z,101808.52
2019-05-07T00:50:12.870Z,101807.58
2019-05-07T00:52:43.016Z,101806.67
2019-05-07T00:55:12.386Z,101811.62
2019-05-07T00:57:42.867Z,101813.89
2019-05-07T01:00:13.123Z,101812.90
2019-05-07T01:02:43.184Z,101812.02
2019-05-07T01:05:12.712Z,101811.62
2019-05-07T01:07:42.109Z,101813.42
2019-05-07T01:10:12.831Z,101811.23
2019-05-07T01:12:42.405Z,101810.80
2019-05-07T01:15:12.873Z,101807.69
2019-05-07T01:17:42.601Z,101807.70
2019-05-07T01:20:12.581Z,101809.89
2019-05-07T01:22:42.501Z,101807.27
2019-05-07T01:25:12.867Z,101810.33
2019-05-07T01:27:42.761Z,101807.27
2019-05-07T01:30:13.022Z,101813.45
2019-05-07T01:32:53.248Z,101808.61
2019-05-07T01:35:42.258Z,101809.48
2019-05-07T01:38:12.341Z,101814.69
2019-05-07T01:40:42.776Z,101810.37
2019-05-07T01:43:12.220Z,101801.09
2019-05-07T01:45:48.991Z,101801.98
2019-05-07T01:48:15.989Z,101807.23
2019-05-07T01:50:45.375Z,101813.45
2019-05-07T01:53:14.635Z,101812.55
2019-05-07T01:55:43.901Z,101813.73
2019-05-07T01:58:13.190Z,101815.09
2019-05-07T02:00:42.667Z,101811.62
2019-05-07T02:03:33.694Z,101811.62
2019-05-07T02:06:08.751Z,101812.03
2019-05-07T02:08:43.935Z,101810.67
2019-05-07T02:11:15.300Z,101817.70
2019-05-07T02:13:44.590Z,101814.61
2019-05-07T02:16:13.890Z,101816.29
2019-05-07T02:18:43.153Z,101816.11
2019-05-07T02:21:12.960Z,101820.60
2019-05-07T02:23:42.665Z,101824.70
2019-05-07T02:26:13.417Z,101818.96
2019-05-07T02:28:42.864Z,101815.03
2019-05-07T02:31:14.926Z,101813.73
2019-05-07T02:33:43.684Z,101816.84
2019-05-07T02:36:14.303Z,101812.48
2019-05-07T02:39:08.754Z,101819.44
2019-05-07T02:41:38.145Z,101812.86
2019-05-07T02:44:07.408Z,101816.86
2019-05-07T02:47:04.621Z,101809.86
2019-05-07T02:49:48.865Z,101812.02
2019-05-07T02:52:37.080Z,101808.50
2019-05-07T02:55:15.776Z,101817.28
2019-05-07T02:57:45.108Z,101805.44
2019-05-07T03:00:19.109Z,101805.52
2019-05-07T03:02:45.867Z,101805.96
2019-05-07T03:05:15.930Z,101799.79
2019-05-07T03:07:45.203Z,101805.50
2019-05-07T03:10:14.511Z,101804.20
2019-05-07T03:12:43.797Z,101802.38
2019-05-07T03:15:13.406Z,101803.27
2019-05-07T03:17:43.087Z,101801.98
2019-05-07T03:20:16.529Z,101802.87
2019-05-07T03:22:45.804Z,101804.64
2019-05-07T03:25:23.083Z,101801.98
2019-05-07T03:27:53.514Z,101800.20
2019-05-07T03:30:57.418Z,101797.14
2019-05-07T03:33:46.861Z,101794.95
2019-05-07T03:36:16.890Z,101797.13
2019-05-07T03:38:44.161Z,101796.27
2019-05-07T03:41:13.389Z,101796.67
2019-05-07T03:43:43.597Z,101801.08
2019-05-07T03:46:15.196Z,101797.56
2019-05-07T03:48:46.130Z,101790.48
2019-05-07T03:51:15.390Z,101792.70
2019-05-07T03:53:44.659Z,101795.78
2019-05-07T03:56:13.934Z,101796.24
2019-05-07T03:58:43.819Z,101793.63
2019-05-07T04:01:13.736Z,101791.42
2019-05-07T04:03:44.742Z,101791.41
2019-05-07T04:06:14.371Z,101789.64
2019-05-07T04:08:43.688Z,101797.94
2019-05-07T04:11:13.805Z,101799.30
2019-05-07T04:13:44.242Z,101795.75
2019-05-07T04:16:13.942Z,101798.83
2019-05-07T04:18:43.938Z,101791.35
2019-05-07T04:21:14.089Z,101800.18
2019-05-07T04:23:44.067Z,101788.33
2019-05-07T04:26:23.175Z,101788.73
2019-05-07T04:29:05.731Z,101787.83
2019-05-07T04:31:38.687Z,101794.45
2019-05-07T04:34:13.757Z,101792.72
2019-05-07T04:36:45.837Z,101789.56
2019-05-07T04:39:15.157Z,101786.80
2019-05-07T04:41:44.417Z,101783.28
2019-05-07T04:44:14.218Z,101776.20
2019-05-07T04:46:47.919Z,101774.89
2019-05-07T04:49:14.828Z,101781.61
2019-05-07T04:51:52.692Z,101775.44
2019-05-07T04:54:23.768Z,101786.82
2019-05-07T04:56:53.092Z,101781.17
2019-05-07T04:59:23.735Z,101775.02
2019-05-07T05:01:59.969Z,101786.45
2019-05-07T05:04:31.493Z,101789.58
2019-05-07T05:07:02.621Z,101782.49
2019-05-07T05:09:32.941Z,101784.61
2019-05-07T05:12:02.839Z,101781.58
2019-05-07T05:14:33.883Z,101772.77
2019-05-07T05:17:03.262Z,101782.81
2019-05-07T05:19:32.531Z,101776.09
2019-05-07T05:22:26.631Z,101778.59
2019-05-07T05:25:27.014Z,101782.05
2019-05-07T05:27:56.292Z,101777.92
2019-05-07T05:30:38.178Z,101776.19
2019-05-07T05:33:07.460Z,101777.64
2019-05-07T05:35:36.991Z,101774.07
2019-05-07T05:38:06.325Z,101784.83
2019-05-07T05:40:35.592Z,101776.72
2019-05-07T05:43:26.669Z,101774.79
2019-05-07T05:45:57.788Z,101772.01
2019-05-07T05:48:27.034Z,101772.55
2019-05-07T05:51:05.758Z,101768.33
2019-05-07T05:53:43.365Z,101775.52
2019-05-07T05:56:20.044Z,101767.45
2019-05-07T05:59:12.087Z,101769.67
2019-05-07T06:02:11.960Z,101772.97
2019-05-07T06:04:55.415Z,101771.43
2019-05-07T06:07:35.637Z,101768.84
2019-05-07T06:10:24.305Z,101772.66
2019-05-07T06:13:23.100Z,101772.29
2019-05-07T06:15:57.258Z,101770.82
2019-05-07T06:18:54.788Z,101771.62
2019-05-07T06:21:41.911Z,101761.98
2019-05-07T06:24:13.175Z,101775.91
2019-05-07T06:26:42.630Z,101772.66
2019-05-07T06:29:11.997Z,101777.68
2019-05-07T06:31:42.216Z,101771.14
2019-05-07T06:34:12.472Z,101759.72
2019-05-07T06:36:42.466Z,101769.81
2019-05-07T06:39:22.258Z,101768.65
2019-05-07T06:42:09.164Z,101766.53
2019-05-07T06:44:38.435Z,101770.05
2019-05-07T06:47:07.691Z,101767.89
2019-05-07T06:49:37.004Z,101767.45
2019-05-07T06:52:06.270Z,101770.11
2019-05-07T06:54:35.614Z,101773.48
2019-05-07T06:57:04.863Z,101773.55
2019-05-07T06:59:42.657Z,101774.20
2019-05-07T07:02:32.814Z,101770.67
2019-05-07T07:05:07.491Z,101777.86
2019-05-07T07:07:45.877Z,101777.80
2019-05-07T07:10:34.197Z,101768.16
2019-05-07T07:13:03.600Z,101771.29
2019-05-07T07:15:32.901Z,101773.38
2019-05-07T07:18:03.181Z,101772.82
2019-05-07T07:20:32.798Z,101764.58
2019-05-07T07:23:02.434Z,101776.37
2019-05-07T07:25:32.632Z,101773.88
2019-05-07T07:28:02.733Z,101766.47
2019-05-07T07:30:45.622Z,101772.66
2019-05-07T07:33:15.403Z,101758.30
2019-05-07T07:35:44.719Z,101758.30
2019-05-07T07:38:32.890Z,101767.22
2019-05-07T07:41:07.339Z,101757.12
2019-05-07T07:43:36.596Z,101758.83
2019-05-07T07:46:05.981Z,101757.53
2019-05-07T07:48:35.254Z,101761.08
2019-05-07T07:51:04.555Z,101759.22
2019-05-07T07:53:35.550Z,101757.49
2019-05-07T07:56:23.122Z,101749.38
2019-05-07T07:59:14.167Z,101749.94
2019-05-07T08:01:48.945Z,101751.00
2019-05-07T08:04:18.319Z,101747.41
2019-05-07T08:06:49.220Z,101747.24
2019-05-07T08:09:18.521Z,101755.24
2019-05-07T08:11:47.800Z,101749.16
2019-05-07T08:14:17.041Z,101752.58
2019-05-07T08:16:46.336Z,101752.88
2019-05-07T08:19:21.845Z,101753.66
2019-05-07T08:21:46.769Z,101743.70
2019-05-07T08:24:16.032Z,101743.66
2019-05-07T08:26:45.305Z,101745.02
2019-05-07T08:29:14.569Z,101745.75
2019-05-07T08:31:51.797Z,101744.58
2019-05-07T08:34:25.921Z,101747.23
2019-05-07T08:36:55.210Z,101742.61
2019-05-07T08:39:25.175Z,101737.16
2019-05-07T08:41:54.590Z,101736.68
2019-05-07T08:44:27.695Z,101736.20
2019-05-07T08:47:25.039Z,101742.34
2019-05-07T08:49:54.335Z,101742.80
2019-05-07T08:52:26.159Z,101730.84
2019-05-07T08:54:54.614Z,101729.81
2019-05-07T08:57:23.935Z,101734.52
2019-05-07T09:00:00.402Z,101724.16
2019-05-07T09:02:25.876Z,101723.68
2019-05-07T09:04:55.142Z,101721.67
2019-05-07T09:07:24.453Z,101722.98
2019-05-07T09:09:53.727Z,101720.39
2019-05-07T09:12:23.192Z,101712.28
2019-05-07T09:14:53.007Z,101714.66
2019-05-07T09:17:23.052Z,101724.98
2019-05-07T09:19:54.790Z,101717.72
2019-05-07T09:22:23.438Z,101717.84
2019-05-07T09:24:52.846Z,101709.91
2019-05-07T09:27:29.980Z,101703.63
2019-05-07T09:30:07.787Z,101711.27
2019-05-07T09:32:45.478Z,101708.98
2019-05-07T09:35:19.045Z,101706.17
2019-05-07T09:37:48.366Z,101695.41
2019-05-07T09:40:17.760Z,101700.77
2019-05-07T09:42:47.061Z,101701.27
2019-05-07T09:45:16.763Z,101693.23
2019-05-07T09:47:46.093Z,101691.49
2019-05-07T09:50:16.162Z,101691.59
2019-05-07T09:52:45.559Z,101688.72
2019-05-07T09:55:17.545Z,101683.86
2019-05-07T09:57:45.944Z,101684.70
2019-05-07T10:00:16.231Z,101672.72
2019-05-07T10:02:45.512Z,101679.20
2019-05-07T10:05:16.009Z,101674.88
2019-05-07T10:07:45.452Z,101669.17
2019-05-07T10:10:14.945Z,101673.50
2019-05-07T10:12:53.984Z,101669.55
2019-05-07T10:15:23.289Z,101671.94
2019-05-07T10:18:08.191Z,101672.78
2019-05-07T10:20:37.467Z,101669.58
2019-05-07T10:23:08.417Z,101664.11
2019-05-07T10:25:41.045Z,101662.63
2019-05-07T10:28:12.347Z,101660.31
2019-05-07T10:30:42.799Z,101670.09
2019-05-07T10:33:12.462Z,101661.55
2019-05-07T10:35:43.446Z,101659.90
2019-05-07T10:38:12.850Z,101656.59
2019-05-07T10:40:42.267Z,101656.22
2019-05-07T10:43:11.527Z,101656.77
2019-05-07T10:45:58.218Z,101653.37
2019-05-07T10:48:39.640Z,101646.26
2019-05-07T10:51:08.949Z,101646.59
2019-05-07T10:53:38.241Z,101645.09
2019-05-07T10:56:07.564Z,101647.05
2019-05-07T10:58:36.847Z,101635.73
2019-05-07T11:01:06.565Z,101630.32
2019-05-07T11:03:35.836Z,101633.09
2019-05-07T11:06:05.138Z,101626.59
2019-05-07T11:08:34.423Z,101626.20
2019-05-07T11:11:03.793Z,101632.28
2019-05-07T11:13:33.179Z,101619.72
2019-05-07T11:16:11.638Z,101628.25
2019-05-07T11:18:48.266Z,101622.98
2019-05-07T11:21:24.783Z,101630.59
2019-05-07T11:23:54.078Z,101618.34
2019-05-07T11:26:23.434Z,101615.34
2019-05-07T11:28:52.694Z,101617.70
2019-05-07T11:31:22.373Z,101610.47
2019-05-07T11:33:52.112Z,101605.81
2019-05-07T11:36:21.653Z,101605.66
2019-05-07T11:38:53.798Z,101606.91
2019-05-07T11:41:32.282Z,101613.50
2019-05-07T11:44:12.446Z,101604.79
2019-05-07T11:47:18.953Z,101601.70
2019-05-07T11:50:05.509Z,101591.20
2019-05-07T11:52:37.666Z,101588.47
2019-05-07T11:55:07.715Z,101590.96
2019-05-07T11:57:37.008Z,101593.31
2019-05-07T12:00:09.892Z,101592.27
2019-05-07T12:02:39.228Z,101578.44
2019-05-07T12:05:09.265Z,101577.45
2019-05-07T12:07:38.624Z,101583.56
2019-05-07T12:10:08.015Z,101582.58
2019-05-07T12:12:39.593Z,101579.33
2019-05-07T12:15:08.922Z,101573.56
2019-05-07T12:17:38.225Z,101569.44
2019-05-07T12:20:07.573Z,101566.48
2019-05-07T12:22:48.760Z,101559.52
2019-05-07T12:25:18.844Z,101560.17
2019-05-07T12:27:49.778Z,101552.42
2019-05-07T12:30:38.818Z,101557.31
2019-05-07T12:33:30.015Z,101548.34
2019-05-07T12:35:59.393Z,101546.83
2019-05-07T12:38:28.770Z,101533.69
2019-05-07T12:40:59.888Z,101533.78
2019-05-07T12:43:29.184Z,101537.02
2019-05-07T12:45:58.482Z,101531.97
2019-05-07T12:48:27.799Z,101529.47
2019-05-07T12:50:57.290Z,101527.50
2019-05-07T12:53:43.930Z,101527.41
2019-05-07T12:56:13.243Z,101525.59
2019-05-07T12:58:42.583Z,101522.16
2019-05-07T13:01:23.525Z,101524.89
2019-05-07T13:04:05.906Z,101513.71
2019-05-07T13:06:38.922Z,101518.09
2019-05-07T13:09:08.330Z,101516.55
2019-05-07T13:11:37.664Z,101510.73
2019-05-07T13:14:06.965Z,101505.41
2019-05-07T13:16:36.306Z,101502.17
2019-05-07T13:19:05.649Z,101495.27
2019-05-07T13:21:46.425Z,101503.51
2019-05-07T13:24:05.972Z,101498.39
2019-05-07T13:26:35.509Z,101483.52
2019-05-07T13:29:04.982Z,101490.33
2019-05-07T13:31:34.883Z,101496.09
2019-05-07T13:34:04.381Z,101486.84
2019-05-07T13:36:35.636Z,101489.17
2019-05-07T13:39:17.399Z,101477.61
2019-05-07T13:41:58.698Z,101484.91
2019-05-07T13:44:37.508Z,101474.11
2019-05-07T13:47:24.717Z,101466.23
2019-05-07T13:49:54.303Z,101456.84
2019-05-07T13:52:25.126Z,101455.42
2019-05-07T13:54:54.995Z,101460.73
2019-05-07T13:57:24.385Z,101454.87
2019-05-07T13:59:54.300Z,101454.52
2019-05-07T14:02:25.466Z,101451.22
2019-05-07T14:04:54.897Z,101447.48
2019-05-07T14:07:25.005Z,101448.16
2019-05-07T14:09:54.326Z,101438.81
2019-05-07T14:12:23.730Z,101434.89
2019-05-07T14:14:53.301Z,101433.89
2019-05-07T14:17:22.856Z,101435.41
2019-05-07T14:19:53.132Z,101436.67
2019-05-07T14:22:22.854Z,101433.28
2019-05-07T14:24:53.080Z,101426.84
2019-05-07T14:27:22.601Z,101434.14
2019-05-07T14:29:52.312Z,101423.95
2019-05-07T14:32:33.885Z,101429.58
2019-05-07T14:35:07.896Z,101418.98
2019-05-07T14:37:43.366Z,101426.37
2019-05-07T14:40:13.128Z,101417.48
2019-05-07T14:42:46.946Z,101412.95
2019-05-07T14:45:16.409Z,101408.59
2019-05-07T14:47:45.829Z,101408.45
2019-05-07T14:50:15.447Z,101396.97
2019-05-07T14:52:44.784Z,101397.36
2019-05-07T14:55:14.140Z,101392.70
2019-05-07T14:57:43.476Z,101394.33
2019-05-07T15:00:13.146Z,101383.63
2019-05-07T15:02:42.644Z,101391.77
2019-05-07T15:05:12.568Z,101375.28
2019-05-07T15:07:42.116Z,101378.86
2019-05-07T15:10:11.487Z,101377.49
2019-05-07T15:12:42.612Z,101382.11
2019-05-07T15:15:12.616Z,101384.16
2019-05-07T15:17:56.775Z,101378.68
2019-05-07T15:20:26.321Z,101374.28
2019-05-07T15:23:22.056Z,101372.45
2019-05-07T15:25:51.801Z,101367.77
2019-05-07T15:28:22.847Z,101363.30
2019-05-07T15:31:17.325Z,101370.69
2019-05-07T15:33:46.595Z,101361.85
2019-05-07T15:36:15.932Z,101363.24
2019-05-07T15:38:45.233Z,101354.95
2019-05-07T15:41:14.531Z,101357.53
2019-05-07T15:43:46.187Z,101359.38
2019-05-07T15:46:15.075Z,101358.00
2019-05-07T15:48:44.319Z,101352.34
2019-05-07T15:51:16.529Z,101349.47
2019-05-07T15:53:48.802Z,101347.64
2019-05-07T15:56:18.098Z,101341.28
2019-05-07T15:58:47.390Z,101339.10
2019-05-07T16:01:16.709Z,101334.77
2019-05-07T16:03:46.576Z,101329.47
2019-05-07T16:06:15.937Z,101331.09
2019-05-07T16:08:57.692Z,101324.54
2019-05-07T16:11:27.320Z,101323.69
2019-05-07T16:14:26.180Z,101322.58
2019-05-07T16:16:56.851Z,101318.06
2019-05-07T16:19:29.695Z,101313.20
2019-05-07T16:22:03.802Z,101312.92
2019-05-07T16:24:33.090Z,101311.55
2019-05-07T16:27:05.138Z,101311.98
2019-05-07T16:29:35.684Z,101321.30
2019-05-07T16:32:04.620Z,101313.34
2019-05-07T16:34:33.912Z,101308.63
2019-05-07T16:37:06.875Z,101301.79
2019-05-07T16:39:34.256Z,101300.17
2019-05-07T16:42:03.590Z,101292.58
2019-05-07T16:44:33.181Z,101293.95
2019-05-07T16:47:02.903Z,101289.47
2019-05-07T16:49:32.338Z,101286.48
2019-05-07T16:52:01.936Z,101281.20
2019-05-07T16:54:31.340Z,101281.89
2019-05-07T16:57:21.545Z,101281.28
2019-05-07T16:59:52.206Z,101290.48
2019-05-07T17:02:25.667Z,101280.70
2019-05-07T17:05:14.597Z,101285.06
2019-05-07T17:08:09.148Z,101276.06
2019-05-07T17:10:38.417Z,101272.72
2019-05-07T17:13:09.855Z,101272.44
2019-05-07T17:18:42.428Z,101268.05
2019-05-07T17:21:12.355Z,101273.63
2019-05-07T17:23:44.676Z,101267.17
2019-05-07T17:26:12.779Z,101263.77
2019-05-07T17:28:42.681Z,101266.17
2019-05-07T17:31:12.494Z,101270.82
2019-05-07T17:33:42.476Z,101266.34
2019-05-07T17:36:12.233Z,101260.61
2019-05-07T17:38:42.909Z,101265.21
2019-05-07T17:41:19.625Z,101259.59
2019-05-07T17:43:43.448Z,101254.86
2019-05-07T17:46:12.710Z,101260.30
2019-05-07T17:48:42.812Z,101266.33
2019-05-07T17:51:34.230Z,101260.41
2019-05-07T17:54:03.586Z,101248.69
2019-05-07T17:56:33.035Z,101246.56
2019-05-07T17:59:02.945Z,101247.84
2019-05-07T18:01:43.168Z,101249.59
2019-05-07T18:04:12.549Z,101250.94
2019-05-07T18:06:42.813Z,101251.45
2019-05-07T18:09:12.299Z,101248.72
2019-05-07T18:11:42.903Z,101248.96
2019-05-07T18:14:12.282Z,101248.60
2019-05-07T18:17:06.796Z,101237.95
2019-05-07T18:19:36.225Z,101238.38
2019-05-07T18:22:05.688Z,101234.27
2019-05-07T18:24:35.117Z,101235.86
2019-05-07T18:27:06.359Z,101235.30
2019-05-07T18:29:35.919Z,101241.19
2019-05-07T18:32:06.005Z,101238.67
2019-05-07T18:34:35.443Z,101243.08
2019-05-07T18:37:04.948Z,101232.59
2019-05-07T18:39:34.343Z,101235.95
2019-05-07T18:42:03.651Z,101237.70
2019-05-07T18:44:33.188Z,101233.22
2019-05-07T18:47:08.098Z,101234.38
2019-05-07T18:49:38.032Z,101233.53
2019-05-07T18:52:07.633Z,101231.38
2019-05-07T18:54:37.044Z,101233.11
2019-05-07T18:57:06.463Z,101226.19
2019-05-07T18:59:37.060Z,101225.55
2019-05-07T19:02:06.758Z,101223.47
2019-05-07T19:04:36.140Z,101224.98
2019-05-07T19:07:05.488Z,101224.86
2019-05-07T19:09:35.009Z,101224.41
2019-05-07T19:12:05.236Z,101234.64
2019-05-07T19:14:36.627Z,101224.29
2019-05-07T19:17:06.091Z,101221.75
2019-05-07T19:19:35.486Z,101230.05
2019-05-07T19:22:04.878Z,101227.63
2019-05-07T19:24:44.263Z,101235.20
2019-05-07T19:27:05.514Z,101236.48
2019-05-07T19:29:34.886Z,101229.08
2019-05-07T19:32:06.057Z,101231.89
2019-05-07T19:34:35.387Z,101232.84
2019-05-07T19:37:04.838Z,101229.20
2019-05-07T19:39:37.301Z,101218.62
2019-05-07T19:42:06.749Z,101232.56
2019-05-07T19:44:36.223Z,101226.59
2019-05-07T19:47:05.746Z,101226.69
2019-05-07T19:49:35.435Z,101229.79
2019-05-07T19:52:04.861Z,101226.16
2019-05-07T19:54:34.279Z,101219.66
2019-05-07T19:57:03.663Z,101223.98
2019-05-07T19:59:33.071Z,101224.33
2019-05-07T20:02:04.144Z,101226.20
2019-05-07T20:04:33.707Z,101223.81
2019-05-07T20:07:03.108Z,101228.24
2019-05-07T20:09:35.045Z,101220.59
2019-05-07T20:20:33.150Z,101226.95
2019-05-07T20:27:33.249Z,101214.56
2019-05-07T20:33:38.318Z,101203.97
2019-05-07T20:36:07.893Z,101188.63
2019-05-07T20:38:37.301Z,101187.48
2019-05-07T20:41:06.714Z,101183.19
2019-05-07T20:43:37.563Z,101177.48
2019-05-07T20:46:06.999Z,101175.87
2019-05-07T20:48:37.189Z,101167.59
2019-05-07T20:51:06.628Z,101168.28
2019-05-07T20:53:59.387Z,101173.06
2019-05-07T20:56:32.305Z,101168.03
2019-05-07T20:59:03.165Z,101160.62
2019-05-07T21:01:35.111Z,101161.34
2019-05-07T21:04:04.557Z,101160.66
2019-05-07T21:06:33.980Z,101145.80
2019-05-07T21:09:04.452Z,101152.42
2019-05-07T21:11:33.980Z,101144.17
2019-05-07T21:14:04.656Z,101149.81
2019-05-07T21:16:35.613Z,101148.17
2019-05-07T21:19:07.439Z,101146.86
2019-05-07T21:21:38.204Z,101150.02
2019-05-07T21:24:07.939Z,101142.34
2019-05-07T21:26:37.358Z,101136.86
2019-05-07T21:29:09.414Z,101136.05
2019-05-07T21:31:43.047Z,101132.58
2019-05-07T21:34:12.697Z,101130.01
2019-05-07T21:36:45.613Z,101125.80
2019-05-07T21:39:17.989Z,101124.28
2019-05-07T21:41:47.378Z,101126.05
2019-05-07T21:44:16.762Z,101121.36
2019-05-07T21:46:46.247Z,101114.42
2019-05-07T21:49:15.707Z,101105.41
2019-05-07T21:51:45.077Z,101104.22
2019-05-07T21:54:29.566Z,101102.31
2019-05-07T21:57:24.156Z,101097.53
2019-05-07T22:00:13.403Z,101094.92
2019-05-07T22:02:42.833Z,101096.34
2019-05-07T22:05:12.327Z,101090.02
2019-05-07T22:07:41.666Z,101092.69
2019-05-07T22:10:12.744Z,101093.49
2019-05-07T22:12:42.239Z,101086.09
2019-05-07T22:15:12.974Z,101084.97
2019-05-07T22:17:44.335Z,101086.09
2019-05-07T22:20:13.343Z,101081.68
2019-05-07T22:22:42.847Z,101078.07
2019-05-07T22:25:13.096Z,101066.20
2019-05-07T22:27:42.533Z,101070.62
2019-05-07T22:30:15.451Z,101066.06
2019-05-07T22:32:53.649Z,101057.69
2019-05-07T22:35:27.218Z,101046.86
2019-05-07T22:37:56.586Z,101046.24
2019-05-07T22:40:25.912Z,101043.06
2019-05-07T22:42:55.310Z,101036.61
2019-05-07T22:45:24.606Z,101033.97
2019-05-07T22:47:53.968Z,101035.89
2019-05-07T22:50:23.276Z,101037.13
2019-05-07T22:52:54.393Z,101030.83
2019-05-07T22:55:23.701Z,101029.25
2019-05-07T22:57:58.768Z,101020.34
2019-05-07T23:00:33.038Z,101019.03
2019-05-07T23:03:02.912Z,101016.66
2019-05-07T23:05:32.511Z,101011.92
2019-05-07T23:08:02.417Z,101007.22
2019-05-07T23:10:33.278Z,101000.97
2019-05-07T23:13:02.798Z,100994.19
2019-05-07T23:15:32.290Z,100987.48
2019-05-07T23:18:04.081Z,100987.24
2019-05-07T23:20:32.719Z,100976.56
2019-05-07T23:23:02.077Z,100970.73
2019-05-07T23:25:32.222Z,100973.34
2019-05-07T23:28:04.880Z,100970.16
2019-05-07T23:30:34.378Z,100968.87
2019-05-07T23:33:03.673Z,100958.45
2019-05-07T23:35:33.019Z,100953.16
2019-05-07T23:38:02.603Z,100955.05
2019-05-07T23:40:57.004Z,100945.34
2019-05-07T23:43:26.270Z,100949.93
2019-05-07T23:45:55.603Z,100950.28
2019-05-07T23:48:24.887Z,100933.77
2019-05-07T23:50:54.268Z,100939.06
2019-05-07T23:53:23.591Z,100937.83
2019-05-07T23:55:52.927Z,100931.60
2019-05-07T23:58:23.076Z,100929.73
